Tuesday, February 20, 2018, 9:33 AM GMT
Back to Local

CWWZ, Port Weller, Ont.

Location: , , Canada Lat: 43.25
Local Time: 9:33 AM GMT ( 9:33 GMT) Lon: -79.217
Time Zone: GMT Elev: 259 ft

Show me the last for .
Show Decoded

2018-02-20 09:00 METAR CWWZ 200900Z AUTO 06002KT 03/03 RMK AO1 SOG 00 6010 SLP161 T00310028 50004
                 =
2018-02-20 08:00 METAR CWWZ 200800Z AUTO 12003KT 04/04 RMK AO1 4PAST HR SOG 00 8007 SLP163 P0002
                 T00370035 50004 =
2018-02-20 07:00 METAR CWWZ 200700Z AUTO 15003KT 03/03 RMK AO1 SOG 00 0003 SLP166 T00320029 =
2018-02-20 06:00 METAR CWWZ 200600Z AUTO 23003KT 02/02 RMK AO1 2PAST HR SOG 00 1013 SLP171 P0001
                 T00200017 50064 =
2018-02-20 05:00 METAR CWWZ 200500Z AUTO 29005KT 02/02 RMK AO1 SOG 00 3009 SLP170 T00240021 50062
                 =
2018-02-20 04:00 METAR CWWZ 200400Z AUTO 19002KT 03/02 RMK AO1 6PAST HR SOG 00 3004 SLP163 P0002
                 T00270024 50062 =
2018-02-20 03:00 METAR CWWZ 200300Z AUTO 22002KT 06/06 RMK AO1 1PAST HR SOG 00 0001 SLP158 P0012
                 T00630061 50056 =
2018-02-20 02:00 METAR CWWZ 200200Z AUTO 25004KT 07/06 RMK AO1 6PAST HR SOG 00 5000 SLP161 P0006
                 T00670055 50025 =
2018-02-20 01:00 METAR CWWZ 200100Z AUTO 36003KT 04/04 RMK AO1 9PAST HR SOG 00 5011 SLP159 P0004
                 T00410039 50009 =
2018-02-20 00:00 METAR CWWZ 200000Z AUTO 09008KT 04/03 RMK AO1 3PAST HR SOG 00 8015 SLP158 P0005
                 T00350032 50040 =
2018-02-19 23:00 METAR CWWZ 192300Z AUTO 08007KT 03/03 RMK AO1 2PAST HR SOG 00 8006 SLP162 P0005
                 T00300027 50026 =
2018-02-19 22:00 METAR CWWZ 192200Z AUTO 04001KT 04/04 RMK AO1 4PAST HR SOG 00 6002 SLP171 P0005
                 T00400035 50014 =
2018-02-19 21:00 METAR CWWZ 192100Z AUTO 21003KT 06/06 RMK AO1 SOG 00 5007 SLP172 T00620057 =
2018-02-19 20:00 METAR CWWZ 192000Z AUTO 21004KT 06/06 RMK AO1 SOG 01 8009 SLP167 T00550057 =
2018-02-19 19:00 METAR CWWZ 191900Z AUTO 20007KT 07/06 RMK AO1 SOG 01 8007 SLP173 T00660060 =
2018-02-19 18:00 METAR CWWZ 191800Z AUTO 20005KT 06/05 RMK AO1 SOG 01 5002 SLP180 T00580049 =
2018-02-19 17:00 METAR CWWZ 191700Z AUTO 19008KT 08/03 RMK AO1 SOG 01 6011 PK WND 20019/1606
                 SLP176 T00780030 =
2018-02-19 16:00 METAR CWWZ 191600Z AUTO 19013G19KT 08/02 RMK AO1 SOG 02 6022 PK WND 19023/1505
                 SLP180 T00760016 =
2018-02-19 15:00 METAR CWWZ 191500Z AUTO 19015G21KT 08/01 RMK AO1 SOG 03 8017 PK WND 18021/1455
                 SLP182 T00770005 =
2018-02-19 14:00 METAR CWWZ 191400Z AUTO 19005KT 06/M01 RMK AO1 SOG 04 8012 SLP188 T00561012 =
2018-02-19 13:00 METAR CWWZ 191300Z AUTO 03001KT 02/M01 RMK AO1 SOG 04 5000 SLP202 T00171014 =
2018-02-19 12:00 METAR CWWZ 191200Z AUTO 04001KT 01/M01 RMK AO1 SOG 03 6005 SLP199 T00111014 =
2018-02-19 11:00 METAR CWWZ 191100Z AUTO 15003KT 01/M03 RMK AO1 SOG 04 6010 SLP200 T00051026 =
2018-02-19 10:00 METAR CWWZ 191000Z AUTO 20002KT 01/M04 RMK AO1 SOG 04 6018 SLP202 T00111041 =

Support USWX by starting your Amazon purchase here.